Latest Weather Observations for Munglinup West

IDW60801

Issued at 9:35 pm WST Friday 1 August 2014 (issued every 30 minutes, with the page automatically refreshed every 10 minutes)

About weather observations | Map of weather stations | Latest weather observations for WA | Other Formats
Station Details ID: 012044 Name: MUNGLINUP WEST Lat: -33.55 Lon: 120.70 Height: 220.0 m
Data from the previous 72 hours. | See also: Recent months at Munglinup West
Date/Time
WST
Temp
°C
App
Temp
°C
Dew
Point
Rel
Hum
%
Delta-T
°C
Wind Press
QNH
hPa
Press
MSL
hPa
Rain
since 9 am
mm
Dir
 
Spd
km/h
Gust
km/h
Spd
kts
Gust
kts
01/09:30pm 3.7 -0.9 1.4 85 0.9 NNE 15 19 8 10 1026.2 - 0.0
01/09:00pm 5.2 0.8 2.6 83 1.1 NNE 15 19 8 10 1026.2 1026.2 0.0
01/08:30pm 5.4 1.0 2.6 82 1.2 NE 15 17 8 9 1026.4 - 0.0
01/08:00pm 6.9 2.6 3.0 76 1.6 NE 15 19 8 10 1026.4 1026.4 0.0
01/07:30pm 7.4 3.1 3.3 75 1.8 NE 15 17 8 9 1026.5 - 0.0
01/07:00pm 7.2 2.8 2.9 74 1.8 ENE 15 17 8 9 1026.6 1026.7 0.0
01/06:30pm 7.8 3.8 2.9 71 2.1 ENE 13 13 7 7 1026.6 - 0.0
01/06:00pm 8.4 5.6 3.3 70 2.2 NE 7 9 4 5 1026.6 1026.7 0.0
01/05:30pm 10.0 7.5 3.7 65 2.8 NNE 6 7 3 4 1026.3 - 0.0
01/05:00pm 12.1 9.7 4.1 58 3.6 ENE 6 7 3 4 1026.2 1026.2 0.0
01/04:30pm 13.8 11.2 3.0 48 4.9 NE 6 9 3 5 1026.3 - 0.0
01/04:00pm 14.2 11.3 2.5 45 5.2 N 7 11 4 6 1026.4 1026.4 0.0
01/03:30pm 14.2 10.8 2.1 44 5.4 N 9 19 5 10 1026.5 - 0.0
01/03:00pm 14.6 11.3 2.5 44 5.4 N 9 17 5 9 1026.7 1026.8 0.0
01/02:30pm 14.6 11.4 3.1 46 5.2 NNW 9 17 5 9 1026.7 - 0.0
01/02:00pm 14.3 10.7 3.2 47 5.0 N 11 24 6 13 1026.9 1027.0 0.0
01/01:30pm 14.3 10.8 3.5 48 4.9 N 11 20 6 11 1027.2 - 0.0
01/01:00pm 13.4 10.9 4.0 53 4.3 NNE 6 9 3 5 1027.6 1027.7 0.0
01/12:30pm 13.8 10.3 3.6 50 4.7 N 11 19 6 10 1028.2 - 0.0
01/12:00pm 12.9 9.1 4.1 55 4.0 N 13 17 7 9 1028.7 1028.8 0.0
01/11:30am 11.9 8.8 3.7 57 3.7 N 9 17 5 9 1029.4 - 0.0
01/11:00am 11.7 8.8 4.4 61 3.3 NNE 9 13 5 7 1029.7 1029.7 0.0
01/10:30am 11.7 8.3 4.0 59 3.5 NNE 11 17 6 9 1029.7 - 0.0
01/10:00am 11.7 9.1 4.2 60 3.4 N 7 13 4 7 1029.9 1029.9 0.0
01/09:30am 10.7 8.4 4.8 67 2.7 NW 6 11 3 6 1029.9 - 0.0
01/09:00am 9.8 7.3 4.6 70 2.3 WNW 7 11 4 6 1029.9 1029.9 0.0
01/08:30am 9.3 7.0 5.5 77 1.7 WNW 7 9 4 5 1029.7 - 0.0
01/08:00am 8.8 6.3 5.0 77 1.7 NW 7 9 4 5 1029.3 1029.3 0.0
01/07:30am 8.2 5.8 5.1 81 1.4 NNW 7 9 4 5 1028.9 - 0.0
01/07:00am 7.9 5.5 5.4 84 1.1 NW 7 9 4 5 1028.6 1028.8 0.0
01/06:30am 7.8 5.6 5.4 85 1.1 NNW 6 7 3 4 1028.3 - 0.0
01/06:00am 7.9 5.7 5.5 85 1.1 NW 6 7 3 4 1028.1 1028.3 0.0
01/05:30am 8.2 6.0 5.3 82 1.3 WNW 6 7 3 4 1027.9 - 0.0
01/05:00am 8.0 6.3 6.0 87 0.9 NW 4 6 2 3 1027.7 1027.8 0.0
01/04:30am 8.0 6.1 6.5 90 0.7 NW 6 7 3 4 1027.6 - 0.0
01/04:00am 7.8 5.9 6.6 92 0.6 NNW 6 6 3 3 1027.5 1027.6 0.0
01/03:30am 7.7 6.2 6.6 93 0.5 N 4 4 2 2 1027.4 - 0.0
01/03:00am 7.7 6.1 6.5 92 0.6 N 4 6 2 3 1027.4 1027.5 0.0
01/02:30am 7.8 5.9 6.6 92 0.6 N 6 6 3 3 1027.5 - 0.0
01/02:00am 7.9 6.7 6.5 91 0.6 NNW 2 4 1 2 1027.8 1028.0 0.0
01/01:30am 8.0 7.2 6.6 91 0.7 CALM 0 0 0 0 1027.9 - 0.0
01/01:00am 8.1 7.3 6.7 91 0.6 CALM 0 0 0 0 1028.0 1028.2 0.0
01/12:30am 8.1 7.3 6.7 91 0.7 CALM 0 0 0 0 1028.1 - 0.0
01/12:00am 8.2 7.4 6.7 90 0.7 W 0 0 0 0 1028.1 1028.3 0.0
 
Date/Time
WST
Temp
°C
App
Temp
°C
Dew
Point
Rel
Hum
%
Delta-T
°C
Wind Press
QNH
hPa
Press
MSL
hPa
Rain
since 9 am
mm
Dir
 
Spd
km/h
Gust
km/h
Spd
kts
Gust
kts
31/11:30pm 8.2 6.3 6.5 89 0.8 WNW 6 7 3 4 1028.3 - 0.0
31/11:00pm 8.3 6.2 5.9 85 1.1 W 6 9 3 5 1028.4 1028.6 0.0
31/10:30pm 8.2 6.8 5.5 83 1.2 SW 2 4 1 2 1028.3 - 0.0
31/10:00pm 8.5 6.2 4.9 78 1.6 SW 6 11 3 6 1028.2 1028.4 0.0
31/09:30pm 8.7 6.2 4.7 76 1.8 SSW 7 11 4 6 1028.2 - 0.0
31/09:00pm 9.2 5.6 5.2 76 1.8 S 13 22 7 12 1028.0 1028.2 0.0
31/08:30pm 9.5 5.7 3.9 68 2.5 SW 13 20 7 11 1027.8 - 0.0
31/08:00pm 9.6 5.4 3.6 66 2.6 SSW 15 24 8 13 1027.8 1028.0 0.0
31/07:30pm 9.4 5.6 4.0 69 2.4 SSW 13 19 7 10 1027.7 - 0.0
31/07:00pm 9.3 5.9 4.1 70 2.3 SSW 11 19 6 10 1027.7 1027.8 0.0
31/06:30pm 9.0 6.5 4.6 74 2.0 SW 7 11 4 6 1027.7 - 0.0
31/06:00pm 9.2 6.2 4.2 71 2.2 SW 9 13 5 7 1027.6 1027.7 0.0
31/05:30pm 9.6 4.6 3.6 66 2.6 SSW 19 26 10 14 1027.3 - 0.0
31/05:00pm 9.8 5.0 2.6 61 3.1 SW 17 24 9 13 1027.3 1027.4 0.0
31/04:30pm 10.0 4.4 3.7 65 2.8 SW 22 28 12 15 1027.0 - 0.0
31/04:00pm 10.3 5.2 3.3 62 3.1 SW 19 32 10 17 1026.7 1026.8 0.0
31/03:30pm 10.4 4.3 3.0 60 3.2 SSW 24 33 13 18 1026.5 - 0.0
31/03:00pm 10.3 4.0 4.0 65 2.8 SW 26 33 14 18 1026.3 1026.4 0.0
31/02:30pm 11.2 5.8 4.4 63 3.1 SSW 22 32 12 17 1026.0 - 0.0
31/02:00pm 10.9 5.0 3.9 62 3.1 SW 24 32 13 17 1025.9 1026.0 0.0
31/01:30pm 11.2 4.9 3.5 59 3.4 SSW 26 33 14 18 1025.7 - 0.0
31/01:00pm 11.4 4.9 2.9 56 3.7 SW 26 33 14 18 1025.6 1025.7 0.0
31/12:30pm 11.2 5.1 2.8 56 3.7 SSW 24 32 13 17 1025.7 - 0.0
31/12:00pm 10.7 4.8 3.7 62 3.1 SSW 24 32 13 17 1025.8 1025.9 0.0
31/11:30am 10.7 4.7 3.3 60 3.3 SW 24 33 13 18 1025.9 - 0.0
31/11:00am 11.7 5.6 3.0 55 3.8 WSW 24 28 13 15 1025.8 1025.9 0.0
31/10:30am 10.6 3.9 3.9 63 3.0 SSW 28 37 15 20 1025.6 - 0.0
31/10:00am 9.9 2.9 4.3 68 2.5 SSW 30 41 16 22 1025.2 1025.3 0.0
31/09:30am 10.2 4.0 4.4 67 2.6 SSW 26 37 14 20 1024.9 - 0.0
31/09:00am 9.5 3.1 5.3 75 1.9 SSW 28 43 15 23 1024.2 1024.4 0.2
31/08:59am 9.4 3.0 5.2 75 1.9 SSW 28 43 15 23 1024.2 - 0.2
31/08:30am 8.9 5.6 8.1 95 0.4 WSW 15 20 8 11 1023.9 - 0.2
31/08:00am 8.3 4.5 7.7 96 0.3 WSW 17 24 9 13 1023.4 1023.5 0.2
31/07:30am 7.9 4.4 7.3 96 0.3 WSW 15 19 8 10 1022.9 - 0.2
31/07:00am 7.8 3.3 7.1 95 0.3 WSW 20 30 11 16 1022.5 1022.6 0.2
31/06:30am 8.0 3.1 6.9 93 0.5 W 22 33 12 18 1022.2 - 0.2
31/06:00am 8.9 4.4 6.2 83 1.3 WSW 19 28 10 15 1021.5 1021.6 0.0
31/05:30am 9.6 3.7 5.8 77 1.8 WSW 26 35 14 19 1021.0 - 0.0
31/05:12am 9.9 3.5 5.1 72 2.2 WSW 28 46 15 25 1020.8 - 0.0
31/05:00am 9.7 4.4 4.9 72 2.2 W 22 32 12 17 1020.7 1020.8 0.0
31/04:30am 9.9 4.2 5.1 72 2.2 W 24 35 13 19 1020.4 - 0.0
31/04:00am 10.0 4.1 5.8 75 1.9 WSW 26 35 14 19 1020.3 1020.4 0.0
31/03:30am 9.8 3.1 5.8 76 1.9 WSW 30 39 16 21 1019.9 - 0.0
31/03:00am 9.9 3.6 5.9 76 1.9 WSW 28 39 15 21 1019.8 1019.8 0.0
31/02:30am 9.5 3.4 6.8 83 1.3 WSW 28 39 15 21 1019.4 - 0.0
31/02:00am 9.9 3.2 8.0 88 0.9 WSW 33 44 18 24 1019.2 1019.3 0.0
31/01:30am 9.6 3.3 8.8 95 0.4 WSW 32 44 17 24 1018.9 - 0.0
31/01:02am 10.7 4.4 9.0 89 0.9 SW 32 52 17 28 1018.6 - 0.0
31/01:00am 11.1 5.6 9.0 87 1.1 SW 28 35 15 19 1018.7 1018.8 0.0
31/12:30am 11.1 6.3 9.0 87 1.1 W 24 30 13 16 1018.1 - 0.0
31/12:00am 11.3 6.2 9.2 87 1.1 W 26 37 14 20 1018.0 1018.1 0.0
 
Date/Time
WST
Temp
°C
App
Temp
°C
Dew
Point
Rel
Hum
%
Delta-T
°C
Wind Press
QNH
hPa
Press
MSL
hPa
Rain
since 9 am
mm
Dir
 
Spd
km/h
Gust
km/h
Spd
kts
Gust
kts
30/11:30pm 10.8 6.1 9.1 89 0.9 W 24 32 13 17 1018.0 - 0.0
30/11:00pm 11.2 6.4 8.9 86 1.2 W 24 35 13 19 1018.0 1018.1 0.0
30/10:30pm 11.2 7.1 8.8 85 1.2 W 20 30 11 16 1017.8 - 0.0
30/10:00pm 12.2 8.1 8.7 79 1.8 W 20 28 11 15 1017.5 1017.6 0.0
30/09:30pm 12.8 8.3 8.5 75 2.2 W 22 30 12 16 1017.1 - 0.0
30/09:00pm 13.4 9.3 8.5 72 2.5 WNW 20 32 11 17 1016.8 1016.9 0.0
30/08:30pm 13.5 9.4 8.6 72 2.5 WNW 20 32 11 17 1016.9 - 0.0
30/08:00pm 13.7 9.6 8.5 71 2.6 WNW 20 32 11 17 1017.1 1017.2 0.0
30/07:30pm 13.6 10.0 8.4 71 2.6 WNW 17 24 9 13 1017.1 - 0.0
30/07:00pm 14.0 10.4 8.4 69 2.8 WNW 17 24 9 13 1017.3 1017.4 0.0
30/06:30pm 14.9 10.4 8.6 66 3.2 W 22 33 12 18 1017.2 - 0.0
30/06:00pm 15.4 11.4 8.9 65 3.4 WNW 20 35 11 19 1016.8 1016.9 0.0
30/05:30pm 15.9 12.0 8.6 62 3.8 WNW 19 30 10 16 1016.6 - 0.0
30/05:00pm 16.1 12.0 8.6 61 3.9 WNW 20 32 11 17 1016.4 1016.5 0.0
30/04:30pm 16.9 11.6 8.6 58 4.3 WNW 26 41 14 22 1016.2 - 0.0
30/04:00pm 17.7 13.0 9.3 58 4.4 WNW 24 35 13 19 1016.2 1016.2 0.0
30/03:30pm 17.7 11.8 9.1 57 4.5 WNW 30 44 16 24 1016.2 - 0.0
30/03:00pm 17.6 12.4 9.0 57 4.5 WNW 26 39 14 21 1016.2 1016.2 0.0
30/02:30pm 17.2 11.4 9.4 60 4.1 WNW 30 46 16 25 1016.2 - 0.0
30/02:25pm 17.8 12.2 8.9 56 4.7 WNW 28 46 15 25 1016.2 - 0.0
30/02:00pm 16.7 10.5 9.9 64 3.6 W 33 43 18 23 1016.2 1016.2 0.0
30/01:30pm 15.5 8.6 9.0 65 3.4 W 35 48 19 26 1016.6 - 0.0
30/01:00pm 15.9 10.1 9.3 65 3.4 W 30 43 16 23 1016.7 1016.8 0.0
30/12:30pm 17.2 12.2 9.6 61 4.0 W 26 44 14 24 1017.0 - 0.0
30/12:00pm 16.8 11.8 9.5 62 3.8 WNW 26 39 14 21 1017.4 1017.5 0.0
30/11:30am 16.3 11.2 9.3 63 3.7 WNW 26 37 14 20 1017.8 - 0.0
30/11:00am 16.1 10.6 9.3 64 3.5 WNW 28 41 15 22 1018.2 1018.3 0.0
30/10:30am 14.6 8.7 9.0 69 2.9 WNW 30 41 16 22 1018.6 - 0.0
30/10:00am 14.3 9.6 9.3 72 2.6 WNW 24 39 13 21 1019.2 1019.3 0.0
30/09:30am 14.0 9.7 9.2 73 2.5 WNW 22 32 12 17 1019.3 - 0.0
30/09:00am 13.6 9.2 9.1 74 2.3 WNW 22 35 12 19 1019.3 1019.4 0.0
30/08:30am 13.2 9.2 8.9 75 2.2 WNW 20 35 11 19 1019.3 - 0.0
30/08:00am 12.7 8.9 9.0 78 1.9 W 19 30 10 16 1019.3 1019.4 0.0
30/07:30am 12.3 9.3 9.1 81 1.6 WNW 15 24 8 13 1019.4 - 0.0
30/07:00am 12.0 8.6 9.2 83 1.4 WNW 17 24 9 13 1019.2 1019.3 0.0
30/06:30am 11.8 8.9 9.7 87 1.1 WNW 15 24 8 13 1019.1 - 0.0
30/06:00am 11.6 9.2 9.9 89 0.9 WNW 13 22 7 12 1019.1 1019.2 0.0
30/05:30am 12.0 9.2 9.9 87 1.1 WNW 15 22 8 12 1019.1 - 0.0
30/05:00am 11.9 8.7 10.1 89 0.9 WNW 17 26 9 14 1019.1 1019.2 0.0
30/04:30am 11.6 8.5 10.2 91 0.7 WNW 17 24 9 13 1019.1 - 0.0
30/04:00am 11.2 8.4 10.0 92 0.6 WNW 15 24 8 13 1019.1 1019.2 0.0
30/03:30am 10.7 7.8 9.6 93 0.6 WNW 15 22 8 12 1019.4 - 0.0
30/03:00am 11.0 7.7 9.6 91 0.7 WNW 17 24 9 13 1019.8 1019.8 0.0
30/02:30am 10.7 7.8 9.5 92 0.6 WNW 15 24 8 13 1020.1 - 0.0
30/02:00am 10.7 7.5 9.8 94 0.5 WNW 17 26 9 14 1020.2 1020.3 0.0
30/01:30am 10.3 7.3 9.4 94 0.5 NW 15 20 8 11 1020.2 - 0.0
30/01:00am 10.0 7.0 9.1 94 0.4 NW 15 20 8 11 1020.4 1020.5 0.0
30/12:30am 10.1 7.4 9.0 93 0.5 NW 13 19 7 10 1020.3 - 0.0
30/12:00am 10.2 7.2 9.1 93 0.5 NW 15 20 8 11 1020.4 1020.5 0.0
 
Date/Time
WST
Temp
°C
App
Temp
°C
Dew
Point
Rel
Hum
%
Delta-T
°C
Wind Press
QNH
hPa
Press
MSL
hPa
Rain
since 9 am
mm
Dir
 
Spd
km/h
Gust
km/h
Spd
kts
Gust
kts
29/11:30pm 10.2 7.5 9.0 92 0.6 NW 13 20 7 11 1020.6 - 0.0
29/11:00pm 10.2 7.4 8.6 90 0.8 NW 13 20 7 11 1020.7 1020.8 0.0
29/10:30pm 10.2 7.3 8.3 88 0.9 NNW 13 17 7 9 1021.0 - 0.0
29/10:00pm 10.5 7.6 8.1 85 1.2 NNW 13 17 7 9 1021.1 1021.2 0.0

Other Formats:

Comma delimited format used in spreadsheet applications
http://www.bom.gov.au/fwo/IDW60801/IDW60801.95644.axf

JavaScript Object Notation format (JSON) in row-major order
http://www.bom.gov.au/fwo/IDW60801/IDW60801.95644.json